sensor_id;sensor_type;location;lat;lon;timestamp;P1;durP1;ratioP1;P2;durP2;ratioP2
15673;SDS011;7937;48.090;16.212;2023-06-26T00:00:09;6.83;;;6.17;;
15673;SDS011;7937;48.090;16.212;2023-06-26T00:03:13;5.93;;;5.30;;
15673;SDS011;7937;48.090;16.212;2023-06-26T00:06:16;14.23;;;6.77;;
15673;SDS011;7937;48.090;16.212;2023-06-26T00:09:19;6.97;;;6.27;;
15673;SDS011;7937;48.090;16.212;2023-06-26T00:12:21;8.10;;;6.47;;
15673;SDS011;7937;48.090;16.212;2023-06-26T00:15:23;6.73;;;6.10;;
15673;SDS011;7937;48.090;16.212;2023-06-26T00:18:25;7.87;;;6.10;;
15673;SDS011;7937;48.090;16.212;2023-06-26T00:21:28;7.77;;;6.40;;
15673;SDS011;7937;48.090;16.212;2023-06-26T00:24:30;7.27;;;6.47;;
15673;SDS011;7937;48.090;16.212;2023-06-26T00:27:32;7.93;;;6.30;;
15673;SDS011;7937;48.090;16.212;2023-06-26T00:30:34;8.87;;;6.83;;
15673;SDS011;7937;48.090;16.212;2023-06-26T00:33:37;9.27;;;6.37;;
15673;SDS011;7937;48.090;16.212;2023-06-26T00:36:39;6.37;;;5.77;;
15673;SDS011;7937;48.090;16.212;2023-06-26T00:39:45;9.30;;;5.60;;
15673;SDS011;7937;48.090;16.212;2023-06-26T00:42:47;6.57;;;5.73;;
15673;SDS011;7937;48.090;16.212;2023-06-26T00:45:49;7.03;;;5.87;;
15673;SDS011;7937;48.090;16.212;2023-06-26T00:48:53;6.43;;;5.73;;
15673;SDS011;7937;48.090;16.212;2023-06-26T00:51:57;6.83;;;5.90;;
15673;SDS011;7937;48.090;16.212;2023-06-26T00:54:59;6.83;;;5.87;;
15673;SDS011;7937;48.090;16.212;2023-06-26T00:58:01;9.00;;;6.70;;
15673;SDS011;7937;48.090;16.212;2023-06-26T01:01:04;9.43;;;6.60;;
15673;SDS011;7937;48.090;16.212;2023-06-26T01:04:13;8.87;;;6.47;;
15673;SDS011;7937;48.090;16.212;2023-06-26T01:07:19;8.40;;;6.77;;
15673;SDS011;7937;48.090;16.212;2023-06-26T01:10:24;8.50;;;6.43;;
15673;SDS011;7937;48.090;16.212;2023-06-26T01:13:29;8.20;;;6.57;;
15673;SDS011;7937;48.090;16.212;2023-06-26T01:16:33;6.87;;;6.10;;
15673;SDS011;7937;48.090;16.212;2023-06-26T01:19:37;6.80;;;6.10;;
15673;SDS011;7937;48.090;16.212;2023-06-26T01:29:11;9.00;;;6.70;;
15673;SDS011;7937;48.090;16.212;2023-06-26T01:32:17;7.87;;;6.03;;
15673;SDS011;7937;48.090;16.212;2023-06-26T01:35:20;7.27;;;6.57;;
15673;SDS011;7937;48.090;16.212;2023-06-26T01:38:23;7.63;;;5.60;;
15673;SDS011;7937;48.090;16.212;2023-06-26T01:41:25;8.83;;;6.17;;
15673;SDS011;7937;48.090;16.212;2023-06-26T01:44:31;6.47;;;5.87;;
15673;SDS011;7937;48.090;16.212;2023-06-26T01:47:41;6.50;;;5.80;;
15673;SDS011;7937;48.090;16.212;2023-06-26T01:50:49;6.37;;;5.70;;
15673;SDS011;7937;48.090;16.212;2023-06-26T01:53:53;6.57;;;5.77;;
15673;SDS011;7937;48.090;16.212;2023-06-26T01:56:59;6.40;;;5.67;;
15673;SDS011;7937;48.090;16.212;2023-06-26T02:00:02;7.70;;;5.70;;
15673;SDS011;7937;48.090;16.212;2023-06-26T02:03:13;6.13;;;5.53;;
15673;SDS011;7937;48.090;16.212;2023-06-26T02:06:16;5.50;;;4.73;;
15673;SDS011;7937;48.090;16.212;2023-06-26T02:09:18;6.00;;;5.40;;
15673;SDS011;7937;48.090;16.212;2023-06-26T02:12:21;6.90;;;5.27;;
15673;SDS011;7937;48.090;16.212;2023-06-26T02:15:23;9.80;;;5.43;;
15673;SDS011;7937;48.090;16.212;2023-06-26T02:18:25;6.90;;;6.20;;
15673;SDS011;7937;48.090;16.212;2023-06-26T02:21:27;7.47;;;5.13;;
15673;SDS011;7937;48.090;16.212;2023-06-26T02:24:30;8.33;;;5.67;;
15673;SDS011;7937;48.090;16.212;2023-06-26T02:27:32;5.87;;;5.27;;
15673;SDS011;7937;48.090;16.212;2023-06-26T02:30:34;7.27;;;5.53;;
15673;SDS011;7937;48.090;16.212;2023-06-26T02:33:37;7.20;;;5.40;;
15673;SDS011;7937;48.090;16.212;2023-06-26T02:36:39;9.43;;;5.63;;
15673;SDS011;7937;48.090;16.212;2023-06-26T02:39:42;5.87;;;5.27;;
15673;SDS011;7937;48.090;16.212;2023-06-26T02:42:44;8.27;;;5.30;;
15673;SDS011;7937;48.090;16.212;2023-06-26T02:45:46;6.70;;;5.40;;
15673;SDS011;7937;48.090;16.212;2023-06-26T02:48:48;8.27;;;5.97;;
15673;SDS011;7937;48.090;16.212;2023-06-26T02:51:51;5.80;;;5.30;;
15673;SDS011;7937;48.090;16.212;2023-06-26T02:54:58;6.27;;;5.67;;
15673;SDS011;7937;48.090;16.212;2023-06-26T02:58:00;5.07;;;4.57;;
15673;SDS011;7937;48.090;16.212;2023-06-26T03:01:03;5.80;;;5.20;;
15673;SDS011;7937;48.090;16.212;2023-06-26T03:04:05;5.30;;;4.53;;
15673;SDS011;7937;48.090;16.212;2023-06-26T03:07:07;5.80;;;5.03;;
15673;SDS011;7937;48.090;16.212;2023-06-26T03:10:11;4.80;;;4.10;;
15673;SDS011;7937;48.090;16.212;2023-06-26T03:13:13;7.57;;;4.43;;
15673;SDS011;7937;48.090;16.212;2023-06-26T03:16:15;5.10;;;4.60;;
15673;SDS011;7937;48.090;16.212;2023-06-26T03:19:18;8.33;;;4.67;;
15673;SDS011;7937;48.090;16.212;2023-06-26T03:22:51;5.07;;;4.47;;
15673;SDS011;7937;48.090;16.212;2023-06-26T03:25:54;5.83;;;4.60;;
15673;SDS011;7937;48.090;16.212;2023-06-26T03:29:03;5.70;;;4.50;;
15673;SDS011;7937;48.090;16.212;2023-06-26T03:32:06;6.53;;;5.13;;
15673;SDS011;7937;48.090;16.212;2023-06-26T03:35:09;7.83;;;5.30;;
15673;SDS011;7937;48.090;16.212;2023-06-26T03:38:11;5.73;;;4.77;;
15673;SDS011;7937;48.090;16.212;2023-06-26T03:41:15;8.03;;;5.20;;
15673;SDS011;7937;48.090;16.212;2023-06-26T03:44:17;5.77;;;4.87;;
15673;SDS011;7937;48.090;16.212;2023-06-26T03:47:22;5.13;;;4.63;;
15673;SDS011;7937;48.090;16.212;2023-06-26T03:50:24;8.33;;;5.87;;
15673;SDS011;7937;48.090;16.212;2023-06-26T03:53:26;6.10;;;4.70;;
15673;SDS011;7937;48.090;16.212;2023-06-26T03:56:28;7.90;;;5.40;;
15673;SDS011;7937;48.090;16.212;2023-06-26T03:59:30;8.57;;;6.43;;
15673;SDS011;7937;48.090;16.212;2023-06-26T04:02:32;5.97;;;5.37;;
15673;SDS011;7937;48.090;16.212;2023-06-26T04:05:35;7.33;;;5.67;;
15673;SDS011;7937;48.090;16.212;2023-06-26T04:08:38;7.53;;;5.93;;
15673;SDS011;7937;48.090;16.212;2023-06-26T04:11:40;7.03;;;5.50;;
15673;SDS011;7937;48.090;16.212;2023-06-26T04:14:42;6.87;;;6.23;;
15673;SDS011;7937;48.090;16.212;2023-06-26T04:17:45;5.90;;;5.33;;
15673;SDS011;7937;48.090;16.212;2023-06-26T04:24:10;6.40;;;5.70;;
15673;SDS011;7937;48.090;16.212;2023-06-26T04:27:15;7.37;;;5.93;;
15673;SDS011;7937;48.090;16.212;2023-06-26T04:30:17;6.53;;;5.83;;
15673;SDS011;7937;48.090;16.212;2023-06-26T04:33:19;6.33;;;5.73;;
15673;SDS011;7937;48.090;16.212;2023-06-26T04:36:22;6.70;;;5.47;;
15673;SDS011;7937;48.090;16.212;2023-06-26T04:39:24;7.40;;;6.20;;
15673;SDS011;7937;48.090;16.212;2023-06-26T04:42:26;6.57;;;5.50;;
15673;SDS011;7937;48.090;16.212;2023-06-26T04:45:28;6.80;;;5.67;;
15673;SDS011;7937;48.090;16.212;2023-06-26T04:48:30;8.37;;;6.60;;
15673;SDS011;7937;48.090;16.212;2023-06-26T04:51:32;11.03;;;6.73;;
15673;SDS011;7937;48.090;16.212;2023-06-26T04:54:34;5.87;;;5.17;;
15673;SDS011;7937;48.090;16.212;2023-06-26T04:57:37;7.83;;;6.97;;
15673;SDS011;7937;48.090;16.212;2023-06-26T05:00:39;7.97;;;7.17;;
15673;SDS011;7937;48.090;16.212;2023-06-26T05:03:43;7.33;;;6.63;;
15673;SDS011;7937;48.090;16.212;2023-06-26T05:06:47;7.20;;;6.50;;
15673;SDS011;7937;48.090;16.212;2023-06-26T05:09:49;9.77;;;7.53;;
15673;SDS011;7937;48.090;16.212;2023-06-26T05:12:51;8.47;;;7.60;;
15673;SDS011;7937;48.090;16.212;2023-06-26T05:15:53;10.30;;;8.00;;
15673;SDS011;7937;48.090;16.212;2023-06-26T05:18:55;9.03;;;8.13;;
15673;SDS011;7937;48.090;16.212;2023-06-26T05:21:57;9.50;;;8.00;;
15673;SDS011;7937;48.090;16.212;2023-06-26T05:25:02;8.80;;;7.90;;
15673;SDS011;7937;48.090;16.212;2023-06-26T05:28:06;8.63;;;7.63;;
15673;SDS011;7937;48.090;16.212;2023-06-26T05:31:11;9.23;;;8.30;;
15673;SDS011;7937;48.090;16.212;2023-06-26T05:34:14;11.13;;;9.00;;
15673;SDS011;7937;48.090;16.212;2023-06-26T05:37:20;9.67;;;8.47;;
15673;SDS011;7937;48.090;16.212;2023-06-26T05:40:23;11.47;;;9.27;;
15673;SDS011;7937;48.090;16.212;2023-06-26T05:43:26;10.37;;;8.80;;
15673;SDS011;7937;48.090;16.212;2023-06-26T05:46:29;9.30;;;8.30;;
15673;SDS011;7937;48.090;16.212;2023-06-26T05:49:33;10.00;;;8.43;;
15673;SDS011;7937;48.090;16.212;2023-06-26T05:52:35;9.47;;;8.47;;
15673;SDS011;7937;48.090;16.212;2023-06-26T05:55:38;9.53;;;8.53;;
15673;SDS011;7937;48.090;16.212;2023-06-26T05:58:42;10.10;;;9.10;;
15673;SDS011;7937;48.090;16.212;2023-06-26T06:01:46;8.97;;;8.07;;
15673;SDS011;7937;48.090;16.212;2023-06-26T06:04:48;10.37;;;9.37;;
15673;SDS011;7937;48.090;16.212;2023-06-26T06:07:50;9.97;;;8.97;;
15673;SDS011;7937;48.090;16.212;2023-06-26T06:10:52;9.70;;;8.80;;
15673;SDS011;7937;48.090;16.212;2023-06-26T06:13:54;10.10;;;9.10;;
15673;SDS011;7937;48.090;16.212;2023-06-26T06:16:57;9.40;;;8.50;;
15673;SDS011;7937;48.090;16.212;2023-06-26T06:19:59;9.33;;;8.33;;
15673;SDS011;7937;48.090;16.212;2023-06-26T06:23:01;8.43;;;7.63;;
15673;SDS011;7937;48.090;16.212;2023-06-26T06:26:03;10.07;;;8.30;;
15673;SDS011;7937;48.090;16.212;2023-06-26T06:29:05;8.30;;;7.13;;
15673;SDS011;7937;48.090;16.212;2023-06-26T06:32:08;7.57;;;6.87;;
15673;SDS011;7937;48.090;16.212;2023-06-26T06:35:10;8.03;;;6.50;;
15673;SDS011;7937;48.090;16.212;2023-06-26T06:38:12;8.13;;;5.77;;
15673;SDS011;7937;48.090;16.212;2023-06-26T06:41:15;6.90;;;5.53;;
15673;SDS011;7937;48.090;16.212;2023-06-26T06:44:18;6.10;;;5.27;;
15673;SDS011;7937;48.090;16.212;2023-06-26T06:47:21;5.60;;;5.07;;
15673;SDS011;7937;48.090;16.212;2023-06-26T06:50:23;6.27;;;5.30;;
15673;SDS011;7937;48.090;16.212;2023-06-26T06:53:28;5.70;;;5.20;;
15673;SDS011;7937;48.090;16.212;2023-06-26T07:01:20;6.37;;;5.73;;
15673;SDS011;7937;48.090;16.212;2023-06-26T07:04:22;6.40;;;4.83;;
15673;SDS011;7937;48.090;16.212;2023-06-26T07:07:25;5.93;;;5.30;;
15673;SDS011;7937;48.090;16.212;2023-06-26T07:10:31;5.30;;;4.80;;
15673;SDS011;7937;48.090;16.212;2023-06-26T07:13:33;5.83;;;5.03;;
15673;SDS011;7937;48.090;16.212;2023-06-26T07:16:35;5.97;;;5.27;;
15673;SDS011;7937;48.090;16.212;2023-06-26T07:19:37;5.07;;;4.10;;
15673;SDS011;7937;48.090;16.212;2023-06-26T07:22:39;5.00;;;4.50;;
15673;SDS011;7937;48.090;16.212;2023-06-26T07:25:41;6.37;;;4.80;;
15673;SDS011;7937;48.090;16.212;2023-06-26T07:28:43;4.20;;;3.83;;
15673;SDS011;7937;48.090;16.212;2023-06-26T07:31:46;4.90;;;4.43;;
15673;SDS011;7937;48.090;16.212;2023-06-26T07:34:50;6.73;;;4.27;;
15673;SDS011;7937;48.090;16.212;2023-06-26T07:37:51;6.30;;;4.83;;
15673;SDS011;7937;48.090;16.212;2023-06-26T07:40:54;4.73;;;4.23;;
15673;SDS011;7937;48.090;16.212;2023-06-26T07:43:56;4.93;;;4.43;;
15673;SDS011;7937;48.090;16.212;2023-06-26T07:46:59;5.70;;;5.20;;
15673;SDS011;7937;48.090;16.212;2023-06-26T07:50:01;4.70;;;4.30;;
15673;SDS011;7937;48.090;16.212;2023-06-26T07:53:03;5.17;;;4.57;;
15673;SDS011;7937;48.090;16.212;2023-06-26T07:56:07;7.37;;;5.07;;
15673;SDS011;7937;48.090;16.212;2023-06-26T07:59:09;5.40;;;4.90;;
15673;SDS011;7937;48.090;16.212;2023-06-26T08:02:11;5.77;;;5.27;;
15673;SDS011;7937;48.090;16.212;2023-06-26T08:05:14;5.93;;;5.33;;
15673;SDS011;7937;48.090;16.212;2023-06-26T08:08:16;5.60;;;5.10;;
15673;SDS011;7937;48.090;16.212;2023-06-26T08:11:18;6.97;;;5.20;;
15673;SDS011;7937;48.090;16.212;2023-06-26T08:14:20;7.33;;;5.53;;
15673;SDS011;7937;48.090;16.212;2023-06-26T08:17:25;6.40;;;5.37;;
15673;SDS011;7937;48.090;16.212;2023-06-26T08:20:31;7.73;;;5.10;;
15673;SDS011;7937;48.090;16.212;2023-06-26T08:23:38;6.87;;;5.43;;
15673;SDS011;7937;48.090;16.212;2023-06-26T08:26:40;5.50;;;5.00;;
15673;SDS011;7937;48.090;16.212;2023-06-26T08:29:42;6.87;;;5.70;;
15673;SDS011;7937;48.090;16.212;2023-06-26T08:32:44;5.70;;;5.17;;
15673;SDS011;7937;48.090;16.212;2023-06-26T08:35:46;6.40;;;5.77;;
15673;SDS011;7937;48.090;16.212;2023-06-26T08:38:48;8.13;;;6.03;;
15673;SDS011;7937;48.090;16.212;2023-06-26T08:41:51;6.43;;;5.47;;
15673;SDS011;7937;48.090;16.212;2023-06-26T08:44:53;5.70;;;4.87;;
15673;SDS011;7937;48.090;16.212;2023-06-26T08:48:02;5.93;;;5.30;;
15673;SDS011;7937;48.090;16.212;2023-06-26T08:51:11;6.63;;;6.03;;
15673;SDS011;7937;48.090;16.212;2023-06-26T08:54:15;7.57;;;5.60;;
15673;SDS011;7937;48.090;16.212;2023-06-26T08:57:19;8.00;;;6.03;;
15673;SDS011;7937;48.090;16.212;2023-06-26T09:00:22;7.37;;;5.50;;
15673;SDS011;7937;48.090;16.212;2023-06-26T09:03:25;5.83;;;5.33;;
15673;SDS011;7937;48.090;16.212;2023-06-26T09:06:28;6.40;;;5.80;;
15673;SDS011;7937;48.090;16.212;2023-06-26T09:09:30;6.20;;;5.60;;
15673;SDS011;7937;48.090;16.212;2023-06-26T09:12:32;5.50;;;4.97;;
15673;SDS011;7937;48.090;16.212;2023-06-26T09:15:38;5.72;;;5.22;;
15673;SDS011;7937;48.090;16.212;2023-06-26T09:18:47;6.82;;;5.00;;
15673;SDS011;7937;48.090;16.212;2023-06-26T09:21:50;5.63;;;5.07;;
15673;SDS011;7937;48.090;16.212;2023-06-26T09:24:53;4.78;;;4.38;;
15673;SDS011;7937;48.090;16.212;2023-06-26T09:27:56;8.10;;;5.30;;
15673;SDS011;7937;48.090;16.212;2023-06-26T09:31:02;5.28;;;4.78;;
15673;SDS011;7937;48.090;16.212;2023-06-26T09:34:13;5.50;;;5.00;;
15673;SDS011;7937;48.090;16.212;2023-06-26T09:37:15;6.25;;;5.35;;
15673;SDS011;7937;48.090;16.212;2023-06-26T09:40:17;7.63;;;5.60;;
15673;SDS011;7937;48.090;16.212;2023-06-26T09:43:19;6.03;;;5.30;;
15673;SDS011;7937;48.090;16.212;2023-06-26T09:46:29;6.03;;;5.30;;
15673;SDS011;7937;48.090;16.212;2023-06-26T09:49:32;5.25;;;4.75;;
15673;SDS011;7937;48.090;16.212;2023-06-26T09:52:35;5.18;;;4.68;;
15673;SDS011;7937;48.090;16.212;2023-06-26T09:55:37;5.10;;;4.60;;
15673;SDS011;7937;48.090;16.212;2023-06-26T09:58:40;5.35;;;4.85;;
15673;SDS011;7937;48.090;16.212;2023-06-26T10:01:45;7.57;;;4.93;;
15673;SDS011;7937;48.090;16.212;2023-06-26T10:04:49;7.25;;;4.80;;
15673;SDS011;7937;48.090;16.212;2023-06-26T10:07:51;5.80;;;4.38;;
15673;SDS011;7937;48.090;16.212;2023-06-26T10:10:55;5.18;;;4.40;;
15673;SDS011;7937;48.090;16.212;2023-06-26T10:13:59;5.53;;;4.60;;
15673;SDS011;7937;48.090;16.212;2023-06-26T10:17:19;4.97;;;4.47;;
15673;SDS011;7937;48.090;16.212;2023-06-26T10:20:24;5.78;;;4.75;;
15673;SDS011;7937;48.090;16.212;2023-06-26T10:23:29;7.63;;;4.32;;
15673;SDS011;7937;48.090;16.212;2023-06-26T10:26:35;4.70;;;4.30;;
15673;SDS011;7937;48.090;16.212;2023-06-26T10:29:47;7.18;;;4.18;;
15673;SDS011;7937;48.090;16.212;2023-06-26T10:32:59;7.45;;;4.35;;
15673;SDS011;7937;48.090;16.212;2023-06-26T10:36:17;4.53;;;4.13;;
15673;SDS011;7937;48.090;16.212;2023-06-26T10:39:21;4.88;;;4.40;;
15673;SDS011;7937;48.090;16.212;2023-06-26T10:42:36;5.13;;;4.63;;
15673;SDS011;7937;48.090;16.212;2023-06-26T10:45:46;4.82;;;4.18;;
15673;SDS011;7937;48.090;16.212;2023-06-26T10:48:59;4.90;;;4.40;;
15673;SDS011;7937;48.090;16.212;2023-06-26T10:52:02;4.93;;;4.05;;
15673;SDS011;7937;48.090;16.212;2023-06-26T10:55:07;3.80;;;3.50;;
15673;SDS011;7937;48.090;16.212;2023-06-26T11:01:32;4.10;;;3.70;;
15673;SDS011;7937;48.090;16.212;2023-06-26T11:04:46;4.45;;;3.80;;
15673;SDS011;7937;48.090;16.212;2023-06-26T11:08:09;4.00;;;3.65;;
15673;SDS011;7937;48.090;16.212;2023-06-26T11:11:15;4.15;;;3.75;;
15673;SDS011;7937;48.090;16.212;2023-06-26T11:14:18;4.68;;;4.28;;
15673;SDS011;7937;48.090;16.212;2023-06-26T11:17:21;3.95;;;3.65;;
15673;SDS011;7937;48.090;16.212;2023-06-26T11:20:26;4.35;;;3.92;;
15673;SDS011;7937;48.090;16.212;2023-06-26T11:23:29;4.63;;;4.13;;
15673;SDS011;7937;48.090;16.212;2023-06-26T11:26:40;4.25;;;3.90;;
15673;SDS011;7937;48.090;16.212;2023-06-26T11:29:47;4.82;;;4.20;;
15673;SDS011;7937;48.090;16.212;2023-06-26T11:32:50;4.55;;;4.25;;
15673;SDS011;7937;48.090;16.212;2023-06-26T11:35:52;4.45;;;4.05;;
15673;SDS011;7937;48.090;16.212;2023-06-26T11:38:55;6.20;;;4.28;;
15673;SDS011;7937;48.090;16.212;2023-06-26T11:42:02;5.05;;;3.97;;
15673;SDS011;7937;48.090;16.212;2023-06-26T11:45:04;4.18;;;3.78;;
15673;SDS011;7937;48.090;16.212;2023-06-26T11:48:07;5.30;;;4.30;;
15673;SDS011;7937;48.090;16.212;2023-06-26T11:51:13;3.80;;;3.50;;
15673;SDS011;7937;48.090;16.212;2023-06-26T11:54:24;5.68;;;4.07;;
15673;SDS011;7937;48.090;16.212;2023-06-26T11:57:30;4.80;;;4.35;;
15673;SDS011;7937;48.090;16.212;2023-06-26T12:00:32;4.20;;;3.80;;
15673;SDS011;7937;48.090;16.212;2023-06-26T12:03:34;5.60;;;4.45;;
15673;SDS011;7937;48.090;16.212;2023-06-26T12:06:38;4.70;;;4.30;;
15673;SDS011;7937;48.090;16.212;2023-06-26T12:09:43;5.75;;;4.13;;
15673;SDS011;7937;48.090;16.212;2023-06-26T12:12:47;4.63;;;4.22;;
15673;SDS011;7937;48.090;16.212;2023-06-26T12:15:51;4.88;;;4.47;;
15673;SDS011;7937;48.090;16.212;2023-06-26T12:18:57;5.18;;;4.68;;
15673;SDS011;7937;48.090;16.212;2023-06-26T12:22:05;4.63;;;4.22;;
15673;SDS011;7937;48.090;16.212;2023-06-26T12:25:12;5.65;;;4.15;;
15673;SDS011;7937;48.090;16.212;2023-06-26T12:28:18;4.78;;;4.30;;
15673;SDS011;7937;48.090;16.212;2023-06-26T12:31:22;4.60;;;4.20;;
15673;SDS011;7937;48.090;16.212;2023-06-26T12:34:30;4.45;;;3.97;;
15673;SDS011;7937;48.090;16.212;2023-06-26T12:37:37;4.97;;;4.40;;
15673;SDS011;7937;48.090;16.212;2023-06-26T12:40:46;5.32;;;4.55;;
15673;SDS011;7937;48.090;16.212;2023-06-26T12:43:55;5.10;;;4.60;;
15673;SDS011;7937;48.090;16.212;2023-06-26T12:46:59;5.35;;;4.85;;
15673;SDS011;7937;48.090;16.212;2023-06-26T12:50:04;5.38;;;4.72;;
15673;SDS011;7937;48.090;16.212;2023-06-26T12:53:07;5.10;;;4.60;;
15673;SDS011;7937;48.090;16.212;2023-06-26T12:56:09;4.95;;;4.50;;
15673;SDS011;7937;48.090;16.212;2023-06-26T12:59:12;6.15;;;4.55;;
15673;SDS011;7937;48.090;16.212;2023-06-26T13:02:14;6.15;;;4.95;;
15673;SDS011;7937;48.090;16.212;2023-06-26T13:05:17;7.15;;;5.07;;
15673;SDS011;7937;48.090;16.212;2023-06-26T13:08:19;5.57;;;5.07;;
15673;SDS011;7937;48.090;16.212;2023-06-26T13:11:21;5.82;;;5.32;;
15673;SDS011;7937;48.090;16.212;2023-06-26T13:14:27;5.93;;;4.43;;
15673;SDS011;7937;48.090;16.212;2023-06-26T13:17:29;6.05;;;5.10;;
15673;SDS011;7937;48.090;16.212;2023-06-26T13:20:31;6.07;;;5.53;;
15673;SDS011;7937;48.090;16.212;2023-06-26T13:23:33;5.32;;;4.82;;
15673;SDS011;7937;48.090;16.212;2023-06-26T13:26:35;6.00;;;5.25;;
15673;SDS011;7937;48.090;16.212;2023-06-26T13:29:39;6.70;;;5.50;;
15673;SDS011;7937;48.090;16.212;2023-06-26T13:32:41;8.00;;;5.55;;
15673;SDS011;7937;48.090;16.212;2023-06-26T13:35:44;5.60;;;5.18;;
15673;SDS011;7937;48.090;16.212;2023-06-26T13:38:46;5.60;;;5.10;;
15673;SDS011;7937;48.090;16.212;2023-06-26T13:41:49;5.63;;;5.13;;
15673;SDS011;7937;48.090;16.212;2023-06-26T13:44:51;5.68;;;5.18;;
15673;SDS011;7937;48.090;16.212;2023-06-26T13:48:05;5.40;;;4.90;;
15673;SDS011;7937;48.090;16.212;2023-06-26T13:51:08;5.82;;;5.22;;
15673;SDS011;7937;48.090;16.212;2023-06-26T13:54:10;5.60;;;5.10;;
15673;SDS011;7937;48.090;16.212;2023-06-26T13:57:12;5.75;;;5.18;;
15673;SDS011;7937;48.090;16.212;2023-06-26T14:00:15;5.68;;;5.18;;
15673;SDS011;7937;48.090;16.212;2023-06-26T14:03:21;5.65;;;5.15;;
15673;SDS011;7937;48.090;16.212;2023-06-26T14:06:24;5.88;;;5.38;;
15673;SDS011;7937;48.090;16.212;2023-06-26T14:09:28;5.70;;;5.20;;
15673;SDS011;7937;48.090;16.212;2023-06-26T14:12:30;6.03;;;4.95;;
15673;SDS011;7937;48.090;16.212;2023-06-26T14:15:32;5.75;;;4.97;;
15673;SDS011;7937;48.090;16.212;2023-06-26T14:18:34;5.93;;;5.43;;
15673;SDS011;7937;48.090;16.212;2023-06-26T14:21:37;6.15;;;5.55;;
15673;SDS011;7937;48.090;16.212;2023-06-26T14:24:39;5.80;;;5.30;;
15673;SDS011;7937;48.090;16.212;2023-06-26T14:27:41;5.75;;;5.15;;
15673;SDS011;7937;48.090;16.212;2023-06-26T14:30:43;5.53;;;5.03;;
15673;SDS011;7937;48.090;16.212;2023-06-26T14:33:46;5.70;;;5.20;;
15673;SDS011;7937;48.090;16.212;2023-06-26T14:36:48;7.15;;;5.60;;
15673;SDS011;7937;48.090;16.212;2023-06-26T14:39:50;5.50;;;4.88;;
15673;SDS011;7937;48.090;16.212;2023-06-26T14:42:52;6.00;;;5.47;;
15673;SDS011;7937;48.090;16.212;2023-06-26T14:45:55;6.00;;;5.50;;
15673;SDS011;7937;48.090;16.212;2023-06-26T14:48:57;6.05;;;5.55;;
15673;SDS011;7937;48.090;16.212;2023-06-26T14:51:59;5.57;;;5.07;;
15673;SDS011;7937;48.090;16.212;2023-06-26T14:55:01;6.18;;;5.47;;
15673;SDS011;7937;48.090;16.212;2023-06-26T14:58:08;8.00;;;5.43;;
15673;SDS011;7937;48.090;16.212;2023-06-26T15:01:10;6.05;;;5.53;;
15673;SDS011;7937;48.090;16.212;2023-06-26T15:04:12;5.68;;;5.18;;
15673;SDS011;7937;48.090;16.212;2023-06-26T15:07:14;5.82;;;5.28;;
15673;SDS011;7937;48.090;16.212;2023-06-26T15:10:17;6.38;;;5.72;;
15673;SDS011;7937;48.090;16.212;2023-06-26T15:13:19;7.45;;;5.70;;
15673;SDS011;7937;48.090;16.212;2023-06-26T15:16:22;7.80;;;5.18;;
15673;SDS011;7937;48.090;16.212;2023-06-26T15:19:24;6.68;;;5.68;;
15673;SDS011;7937;48.090;16.212;2023-06-26T15:22:26;5.22;;;4.72;;
15673;SDS011;7937;48.090;16.212;2023-06-26T15:25:29;5.80;;;5.20;;
15673;SDS011;7937;48.090;16.212;2023-06-26T15:28:33;5.40;;;4.93;;
15673;SDS011;7937;48.090;16.212;2023-06-26T15:31:36;5.47;;;4.97;;
15673;SDS011;7937;48.090;16.212;2023-06-26T15:34:39;5.22;;;4.72;;
15673;SDS011;7937;48.090;16.212;2023-06-26T15:37:41;5.82;;;4.93;;
15673;SDS011;7937;48.090;16.212;2023-06-26T15:40:43;5.70;;;5.20;;
15673;SDS011;7937;48.090;16.212;2023-06-26T15:43:46;5.88;;;5.30;;
15673;SDS011;7937;48.090;16.212;2023-06-26T15:46:53;5.93;;;5.43;;
15673;SDS011;7937;48.090;16.212;2023-06-26T15:49:56;5.75;;;5.25;;
15673;SDS011;7937;48.090;16.212;2023-06-26T15:53:02;6.20;;;5.53;;
15673;SDS011;7937;48.090;16.212;2023-06-26T15:56:10;6.97;;;5.80;;
15673;SDS011;7937;48.090;16.212;2023-06-26T15:59:13;6.50;;;5.80;;
15673;SDS011;7937;48.090;16.212;2023-06-26T16:02:20;5.68;;;5.18;;
15673;SDS011;7937;48.090;16.212;2023-06-26T16:05:22;5.45;;;4.95;;
15673;SDS011;7937;48.090;16.212;2023-06-26T16:08:26;5.68;;;5.18;;
15673;SDS011;7937;48.090;16.212;2023-06-26T16:11:28;6.43;;;5.82;;
15673;SDS011;7937;48.090;16.212;2023-06-26T16:14:31;8.82;;;5.78;;
15673;SDS011;7937;48.090;16.212;2023-06-26T16:17:34;7.82;;;5.40;;
15673;SDS011;7937;48.090;16.212;2023-06-26T16:20:38;5.90;;;5.10;;
15673;SDS011;7937;48.090;16.212;2023-06-26T16:23:42;5.30;;;4.80;;
15673;SDS011;7937;48.090;16.212;2023-06-26T16:26:45;6.43;;;5.07;;
15673;SDS011;7937;48.090;16.212;2023-06-26T16:29:48;5.60;;;5.10;;
15673;SDS011;7937;48.090;16.212;2023-06-26T16:32:50;5.10;;;4.60;;
15673;SDS011;7937;48.090;16.212;2023-06-26T16:35:55;5.38;;;4.97;;
15673;SDS011;7937;48.090;16.212;2023-06-26T16:38:58;5.20;;;4.80;;
15673;SDS011;7937;48.090;16.212;2023-06-26T16:42:04;5.72;;;5.22;;
15673;SDS011;7937;48.090;16.212;2023-06-26T16:45:08;5.70;;;4.88;;
15673;SDS011;7937;48.090;16.212;2023-06-26T16:48:11;6.60;;;5.20;;
15673;SDS011;7937;48.090;16.212;2023-06-26T16:51:16;5.18;;;4.78;;
15673;SDS011;7937;48.090;16.212;2023-06-26T16:54:18;5.32;;;4.68;;
15673;SDS011;7937;48.090;16.212;2023-06-26T16:57:20;5.13;;;4.72;;
15673;SDS011;7937;48.090;16.212;2023-06-26T17:00:22;5.40;;;4.85;;
15673;SDS011;7937;48.090;16.212;2023-06-26T17:03:25;6.40;;;5.35;;
15673;SDS011;7937;48.090;16.212;2023-06-26T17:06:28;7.13;;;5.30;;
15673;SDS011;7937;48.090;16.212;2023-06-26T17:09:30;8.73;;;5.63;;
15673;SDS011;7937;48.090;16.212;2023-06-26T17:12:32;6.03;;;5.53;;
15673;SDS011;7937;48.090;16.212;2023-06-26T17:15:34;6.38;;;5.57;;
15673;SDS011;7937;48.090;16.212;2023-06-26T17:18:38;5.88;;;5.38;;
15673;SDS011;7937;48.090;16.212;2023-06-26T17:21:41;7.35;;;5.35;;
15673;SDS011;7937;48.090;16.212;2023-06-26T17:24:44;7.90;;;5.63;;
15673;SDS011;7937;48.090;16.212;2023-06-26T17:27:46;8.23;;;6.10;;
15673;SDS011;7937;48.090;16.212;2023-06-26T17:30:48;10.93;;;6.93;;
15673;SDS011;7937;48.090;16.212;2023-06-26T17:33:50;7.05;;;6.22;;
15673;SDS011;7937;48.090;16.212;2023-06-26T17:36:52;7.60;;;6.25;;
15673;SDS011;7937;48.090;16.212;2023-06-26T17:39:54;9.48;;;7.55;;
15673;SDS011;7937;48.090;16.212;2023-06-26T17:42:57;6.93;;;6.23;;
15673;SDS011;7937;48.090;16.212;2023-06-26T17:45:59;6.63;;;6.03;;
15673;SDS011;7937;48.090;16.212;2023-06-26T17:49:01;10.00;;;6.17;;
15673;SDS011;7937;48.090;16.212;2023-06-26T17:52:04;9.50;;;6.90;;
15673;SDS011;7937;48.090;16.212;2023-06-26T17:55:07;7.83;;;5.87;;
15673;SDS011;7937;48.090;16.212;2023-06-26T17:58:10;9.13;;;6.77;;
15673;SDS011;7937;48.090;16.212;2023-06-26T18:01:12;9.33;;;6.40;;
15673;SDS011;7937;48.090;16.212;2023-06-26T18:04:15;6.87;;;6.17;;
15673;SDS011;7937;48.090;16.212;2023-06-26T18:07:17;7.87;;;6.00;;
15673;SDS011;7937;48.090;16.212;2023-06-26T18:10:20;8.73;;;6.27;;
15673;SDS011;7937;48.090;16.212;2023-06-26T18:13:22;7.23;;;6.43;;
15673;SDS011;7937;48.090;16.212;2023-06-26T18:16:26;9.37;;;6.83;;
15673;SDS011;7937;48.090;16.212;2023-06-26T18:19:29;8.83;;;7.10;;
15673;SDS011;7937;48.090;16.212;2023-06-26T18:22:31;10.77;;;7.40;;
15673;SDS011;7937;48.090;16.212;2023-06-26T18:25:34;7.23;;;6.43;;
15673;SDS011;7937;48.090;16.212;2023-06-26T18:28:36;7.57;;;6.77;;
15673;SDS011;7937;48.090;16.212;2023-06-26T18:31:38;11.13;;;7.60;;
15673;SDS011;7937;48.090;16.212;2023-06-26T18:34:41;7.60;;;6.70;;
15673;SDS011;7937;48.090;16.212;2023-06-26T18:37:43;9.40;;;7.53;;
15673;SDS011;7937;48.090;16.212;2023-06-26T18:40:46;11.13;;;6.80;;
15673;SDS011;7937;48.090;16.212;2023-06-26T18:43:49;11.03;;;7.13;;